Share

Hamilton, KS (66853)

T-K Weather Station West Hartford, Kansas (KKSHARTF2) Elev 1129 ft | 38.28 °N, 96.05 °W | Change Station

Current weather conditions updated 5 seconds ago

Haze
Haze
59.7 °F
Feels Like 59.7 °F
N
8.9
Wind Variable Wind from SE
Sunrise 6:43 AM
Sunset 8:04 PM
Moon Waning Gibbous

Today is forecast to be Warmer than yesterday.

Pressure 30.14 in
Visibility 4.0 miles
Clouds Clear
Dew Point 45 °F
Humidity 59%
Rainfall 0.00 in
Snow Depth Not available.
UV 1 out of 16
Pollen 11.80 out of 12
Air Quality Not available.
Flu Activity No Activity
METAR KEMP 191253Z AUTO 17009KT 4SM HZ CLR 10/05 A3013 RMK AO2 SLP204 T01000050

More Conditions Fewer Conditions

Pressure 30.14 in
Visibility 4.0 miles
Clouds Clear
Dew Point 45 °F
Humidity 59%
Rainfall 0.00 in
Snow Depth Not available.
UV 1 out of 16
Pollen 11.80 out of 12
Air Quality Not available.
Flu Activity No Activity
METAR KEMP 191253Z AUTO 17009KT 4SM HZ CLR 10/05 A3013 RMK AO2 SLP204 T01000050

More Conditions Fewer Conditions

10-Day Weather Forecast

Almanac

Astronomy

Apr. 19, 2014 Rise Set
Actual Time 6:43 AM CDT 8:04 PM CDT
Civil Twilight 6:16 AM CDT 8:32 PM CDT
Nautical Twilight 5:43 AM CDT 9:04 PM CDT
Astronomical Twilight 5:09 AM CDT 9:39 PM CDT
Moon No Moon Rise 10:05 AM CDT
Length of Visible Light 14h 15m
Length of Day
13h 20m
Tomorrow will be 2m 17s longer.
Waning Gibbous, 80% of the Moon is Illuminated
Today
Waning Gibbous
Apr 22
Last Quarter
Apr 29
New
May 6
First Quarter
May 14
Full

Today's Extremes

State Highs State Lows

Community

  • A Glorious Morning
    A Glorious Morning
  • Bleeding Hearts
    Bleeding Hearts
  • Sunset Silhouettes
    Sunset Silhouettes
  • FL sunset Perico Isle
    FL sunset Perico Isle
  • Cloudy spring view
    Cloudy spring view

WunderPhotos

Upload Photos

1,702,723 photos uploaded!

Nearby

Snow Depth

Station Depth Elevation
No new snow has been reported.

Coastal Water Temperatures

Place Temperature
No Stations Reporting

Earthquake Activity

City Distance Mag. Time & Date
Perry, Oklahoma 130 miles 2.5 1:42 PM CDT
2014-04-14
Perry, Oklahoma 131 miles 2.6 1:20 PM CDT
2014-04-14
Medford, Oklahoma 118 miles 3.0 5:38 PM CDT
2014-04-12
McCord, Oklahoma 116 miles 2.9 1:33 PM CDT
2014-04-12
Minimum magnitude displayed is 2.5.

Nearby Weather Stations

Station Location Temp. Windchill Dew Point Humidity Wind Precip. Elev Updated Type
T-K Weather Station West Hartford, Kansa, Hartford, KS 59.7 °F - 45 °F 59% SE  at  8.9 mph - / hr 1129 ft 8:37 AM CDT Normal
HADS FALL RIVER LAKE NEAR FALL RIVER KS, Fall River, KS 41 °F 41 °F 38 °F 89% SSE  at  2 mph 0.00 in / hr 1020 ft 7:00 AM CDT MADIS

Show More Stations Show Fewer Stations

What do you think?

We're not finished. Please let us know what you like, what you don't like, and what you are still missing.